Time,TemperatureF,DewpointF,PressureIn,WindDirection,WindDirectionDegrees,WindSpeedMPH,WindSpeedGustMPH,Humidity,HourlyPrecipIn,Conditions,Clouds,dailyrainin,SoftwareType,DateUTC
2013-09-14 00:03:00,59.0,55.0,29.92,NE,49,0.0,-999.0,87,-99.99,,,0.00,weatherlink.com 1.10,2013-09-14 05:03:00,
2013-09-14 00:18:00,58.6,55.0,29.91,NE,53,1.0,-999.0,88,-99.99,,,0.00,weatherlink.com 1.10,2013-09-14 05:18:00,
2013-09-14 00:33:00,58.4,55.0,29.92,NE,53,0.0,-999.0,88,-99.99,,,0.00,weatherlink.com 1.10,2013-09-14 05:33:00,
2013-09-14 00:48:00,58.3,55.0,29.92,NE,53,0.0,-999.0,89,-99.99,,,0.00,weatherlink.com 1.10,2013-09-14 05:48:00,
2013-09-14 01:03:00,57.9,55.0,29.92,NE,53,0.0,-999.0,90,-99.99,,,0.00,weatherlink.com 1.10,2013-09-14 06:03:00,
2013-09-14 01:18:00,57.7,55.0,29.92,NE,53,0.0,-999.0,90,-99.99,,,0.00,weatherlink.com 1.10,2013-09-14 06:18:00,
2013-09-14 01:33:00,57.4,55.0,29.92,NE,53,0.0,-999.0,90,-99.99,,,0.00,weatherlink.com 1.10,2013-09-14 06:33:00,
2013-09-14 01:48:00,57.3,55.0,29.92,NE,53,0.0,-999.0,90,-99.99,,,0.00,weatherlink.com 1.10,2013-09-14 06:48:00,
2013-09-14 02:03:00,57.2,54.0,29.93,NE,53,0.0,-999.0,90,-99.99,,,0.00,weatherlink.com 1.10,2013-09-14 07:03:00,
2013-09-14 02:18:00,57.1,54.0,29.93,East,88,1.0,-999.0,90,-99.99,,,0.00,weatherlink.com 1.10,2013-09-14 07:18:00,
2013-09-14 02:33:00,57.0,54.0,29.93,East,88,0.0,-999.0,90,-99.99,,,0.00,weatherlink.com 1.10,2013-09-14 07:33:00,
2013-09-14 02:48:00,56.8,54.0,29.92,East,88,0.0,-999.0,90,-99.99,,,0.00,weatherlink.com 1.10,2013-09-14 07:48:00,
2013-09-14 03:03:00,56.4,54.0,29.92,East,88,0.0,-999.0,91,-99.99,,,0.00,weatherlink.com 1.10,2013-09-14 08:03:00,
2013-09-14 03:18:00,56.0,54.0,29.92,East,88,0.0,-999.0,91,-99.99,,,0.00,weatherlink.com 1.10,2013-09-14 08:18:00,
2013-09-14 03:33:00,55.8,54.0,29.92,East,88,0.0,-999.0,92,-99.99,,,0.00,weatherlink.com 1.10,2013-09-14 08:33:00,
2013-09-14 03:48:00,55.6,53.0,29.92,East,88,0.0,-999.0,92,-99.99,,,0.00,weatherlink.com 1.10,2013-09-14 08:48:00,
2013-09-14 04:03:00,55.3,53.0,29.92,East,88,0.0,-999.0,92,-99.99,,,0.00,weatherlink.com 1.10,2013-09-14 09:03:00,
2013-09-14 04:18:00,55.1,53.0,29.92,East,88,0.0,-999.0,93,-99.99,,,0.00,weatherlink.com 1.10,2013-09-14 09:18:00,
2013-09-14 04:33:00,54.8,53.0,29.93,East,88,0.0,-999.0,93,-99.99,,,0.00,weatherlink.com 1.10,2013-09-14 09:33:00,
2013-09-14 04:48:00,54.6,53.0,29.93,East,88,1.0,-999.0,93,-99.99,,,0.00,weatherlink.com 1.10,2013-09-14 09:48:00,
2013-09-14 05:03:00,54.4,53.0,29.93,East,88,0.0,-999.0,93,-99.99,,,0.00,weatherlink.com 1.10,2013-09-14 10:03:00,
2013-09-14 05:19:00,54.3,52.0,29.94,East,88,0.0,-999.0,93,-99.99,,,0.00,weatherlink.com 1.10,2013-09-14 10:19:00,
2013-09-14 05:34:00,54.2,52.0,29.94,East,88,1.0,-999.0,93,-99.99,,,0.00,weatherlink.com 1.10,2013-09-14 10:34:00,
2013-09-14 05:49:00,54.1,52.0,29.94,East,88,0.0,-999.0,93,-99.99,,,0.00,weatherlink.com 1.10,2013-09-14 10:49:00,
2013-09-14 06:04:00,53.9,52.0,29.95,East,88,1.0,-999.0,93,-99.99,,,0.00,weatherlink.com 1.10,2013-09-14 11:04:00,
2013-09-14 06:19:00,53.7,52.0,29.95,East,88,0.0,-999.0,93,-99.99,,,0.00,weatherlink.com 1.10,2013-09-14 11:19:00,
2013-09-14 06:34:00,53.6,52.0,29.95,ENE,61,1.0,-999.0,93,-99.99,,,0.00,weatherlink.com 1.10,2013-09-14 11:34:00,
2013-09-14 06:49:00,53.4,52.0,29.96,ENE,61,0.0,-999.0,93,-99.99,,,0.00,weatherlink.com 1.10,2013-09-14 11:49:00,
2013-09-14 07:04:00,53.5,52.0,29.97,ENE,61,1.0,-999.0,94,-99.99,,,0.00,weatherlink.com 1.10,2013-09-14 12:04:00,
2013-09-14 07:19:00,54.1,52.0,29.98,ENE,70,2.0,-999.0,93,-99.99,,,0.00,weatherlink.com 1.10,2013-09-14 12:19:00,
2013-09-14 07:34:00,55.0,52.0,29.97,NE,38,2.0,-999.0,90,-99.99,,,0.00,weatherlink.com 1.10,2013-09-14 12:34:00,
2013-09-14 07:49:00,55.9,53.0,29.98,NE,35,2.0,-999.0,89,-99.99,,,0.00,weatherlink.com 1.10,2013-09-14 12:49:00,
2013-09-14 08:04:00,56.7,54.0,29.98,ENE,74,1.0,-999.0,89,-99.99,,,0.00,weatherlink.com 1.10,2013-09-14 13:04:00,
2013-09-14 08:19:00,59.1,55.0,29.98,NE,44,4.0,-999.0,85,-99.99,,,0.00,weatherlink.com 1.10,2013-09-14 13:19:00,
2013-09-14 08:34:00,60.5,55.0,29.99,NE,34,0.0,-999.0,82,-99.99,,,0.00,weatherlink.com 1.10,2013-09-14 13:34:00,
2013-09-14 08:49:00,61.8,55.0,30.00,NE,44,3.0,-999.0,79,-99.99,,,0.00,weatherlink.com 1.10,2013-09-14 13:49:00,
2013-09-14 09:04:00,63.3,55.0,30.00,NNE,25,3.0,-999.0,75,-99.99,,,0.00,weatherlink.com 1.10,2013-09-14 14:04:00,
2013-09-14 09:19:00,64.0,56.0,30.00,NE,42,1.0,-999.0,74,-99.99,,,0.00,weatherlink.com 1.10,2013-09-14 14:19:00,
2013-09-14 09:34:00,64.1,55.0,30.00,NNE,31,3.0,-999.0,72,-99.99,,,0.00,weatherlink.com 1.10,2013-09-14 14:34:00,
2013-09-14 09:49:00,65.2,56.0,30.00,WSW,255,0.0,-999.0,71,-99.99,,,0.00,weatherlink.com 1.10,2013-09-14 14:49:00,
2013-09-14 10:04:00,65.2,56.0,30.00,ENE,77,2.0,-999.0,73,-99.99,,,0.00,weatherlink.com 1.10,2013-09-14 15:04:00,
2013-09-14 10:19:00,66.5,57.0,30.00,SE,141,2.0,-999.0,71,-99.99,,,0.00,weatherlink.com 1.10,2013-09-14 15:19:00,
2013-09-14 10:34:00,68.3,58.0,30.00,East,88,1.0,-999.0,69,-99.99,,,0.00,weatherlink.com 1.10,2013-09-14 15:34:00,
2013-09-14 10:49:00,68.2,57.0,30.00,NE,53,0.0,-999.0,67,-99.99,,,0.00,weatherlink.com 1.10,2013-09-14 15:49:00,
2013-09-14 11:04:00,69.0,57.0,30.00,East,101,1.0,-999.0,66,-99.99,,,0.00,weatherlink.com 1.10,2013-09-14 16:04:00,
2013-09-14 11:19:00,70.8,58.0,29.99,NE,52,1.0,-999.0,64,-99.99,,,0.00,weatherlink.com 1.10,2013-09-14 16:19:00,
2013-09-14 11:35:00,71.0,58.0,29.99,NE,36,1.0,-999.0,63,-99.99,,,0.00,weatherlink.com 1.10,2013-09-14 16:35:00,
2013-09-14 11:50:00,70.7,58.0,29.99,NNE,13,0.0,-999.0,64,-99.99,,,0.00,weatherlink.com 1.10,2013-09-14 16:50:00,
2013-09-14 12:05:00,71.6,58.0,29.99,ENE,71,1.0,-999.0,62,-99.99,,,0.00,weatherlink.com 1.10,2013-09-14 17:05:00,
2013-09-14 12:20:00,72.3,56.0,29.98,NE,38,1.0,-999.0,56,-99.99,,,0.00,weatherlink.com 1.10,2013-09-14 17:20:00,
2013-09-14 12:35:00,73.0,57.0,29.98,ESE,102,0.0,-999.0,58,-99.99,,,0.00,weatherlink.com 1.10,2013-09-14 17:35:00,
2013-09-14 12:50:00,72.8,58.0,29.98,East,87,2.0,-999.0,60,-99.99,,,0.00,weatherlink.com 1.10,2013-09-14 17:50:00,
2013-09-14 13:05:00,73.7,58.0,29.98,SW,225,0.0,-999.0,58,-99.99,,,0.00,weatherlink.com 1.10,2013-09-14 18:05:00,
2013-09-14 13:20:00,73.5,59.0,29.97,NW,324,1.0,-999.0,61,-99.99,,,0.00,weatherlink.com 1.10,2013-09-14 18:20:00,
2013-09-14 13:35:00,73.7,59.0,29.97,NW,326,3.0,-999.0,60,-99.99,,,0.00,weatherlink.com 1.10,2013-09-14 18:35:00,
2013-09-14 13:50:00,74.7,59.0,29.97,North,11,0.0,-999.0,59,-99.99,,,0.00,weatherlink.com 1.10,2013-09-14 18:50:00,
2013-09-14 14:05:00,75.4,59.0,29.96,NNE,28,1.0,-999.0,57,-99.99,,,0.00,weatherlink.com 1.10,2013-09-14 19:05:00,
2013-09-14 14:20:00,74.8,59.0,29.97,WNW,290,2.0,-999.0,58,-99.99,,,0.00,weatherlink.com 1.10,2013-09-14 19:20:00,
2013-09-14 14:35:00,76.2,60.0,29.96,SE,133,1.0,-999.0,57,-99.99,,,0.00,weatherlink.com 1.10,2013-09-14 19:35:00,
2013-09-14 14:50:00,76.7,60.0,29.96,ESE,114,0.0,-999.0,56,-99.99,,,0.00,weatherlink.com 1.10,2013-09-14 19:50:00,
2013-09-14 15:05:00,75.9,58.0,29.96,South,186,1.0,-999.0,55,-99.99,,,0.00,weatherlink.com 1.10,2013-09-14 20:05:00,
2013-09-14 15:20:00,76.0,59.0,29.96,ESE,112,2.0,-999.0,56,-99.99,,,0.00,weatherlink.com 1.10,2013-09-14 20:20:00,
2013-09-14 15:35:00,76.0,61.0,29.95,WSW,237,1.0,-999.0,59,-99.99,,,0.00,weatherlink.com 1.10,2013-09-14 20:35:00,
2013-09-14 15:50:00,75.9,59.0,29.95,North,10,1.0,-999.0,56,-99.99,,,0.00,weatherlink.com 1.10,2013-09-14 20:50:00,
2013-09-14 16:05:00,75.7,61.0,29.95,NNW,331,1.0,-999.0,60,-99.99,,,0.00,weatherlink.com 1.10,2013-09-14 21:05:00,
2013-09-14 16:20:00,75.7,60.0,29.95,East,98,2.0,-999.0,58,-99.99,,,0.00,weatherlink.com 1.10,2013-09-14 21:20:00,
2013-09-14 16:35:00,75.5,59.0,29.95,East,96,0.0,-999.0,57,-99.99,,,0.00,weatherlink.com 1.10,2013-09-14 21:35:00,
2013-09-14 16:50:00,75.7,59.0,29.95,NNE,16,0.0,-999.0,57,-99.99,,,0.00,weatherlink.com 1.10,2013-09-14 21:50:00,
2013-09-14 17:05:00,75.6,60.0,29.95,NE,36,2.0,-999.0,59,-99.99,,,0.00,weatherlink.com 1.10,2013-09-14 22:05:00,
2013-09-14 17:20:00,75.2,62.0,29.95,NE,36,0.0,-999.0,63,-99.99,,,0.00,weatherlink.com 1.10,2013-09-14 22:20:00,
2013-09-14 17:35:00,74.6,60.0,29.95,NE,36,0.0,-999.0,61,-99.99,,,0.00,weatherlink.com 1.10,2013-09-14 22:35:00,
2013-09-14 17:50:00,74.1,62.0,29.96,NE,36,0.0,-999.0,65,-99.99,,,0.00,weatherlink.com 1.10,2013-09-14 22:50:00,
2013-09-14 18:05:00,73.3,62.0,29.96,NE,36,0.0,-999.0,68,-99.99,,,0.00,weatherlink.com 1.10,2013-09-14 23:05:00,
2013-09-14 18:20:00,72.0,64.0,29.96,NE,36,0.0,-999.0,76,-99.99,,,0.00,weatherlink.com 1.10,2013-09-14 23:20:00,
2013-09-14 18:35:00,70.9,64.0,29.97,NE,36,0.0,-999.0,78,-99.99,,,0.00,weatherlink.com 1.10,2013-09-14 23:35:00,
2013-09-14 18:50:00,69.7,63.0,29.97,NE,36,1.0,-999.0,79,-99.99,,,0.00,weatherlink.com 1.10,2013-09-14 23:50:00,
2013-09-14 19:05:00,68.4,62.0,29.97,NE,36,0.0,-999.0,80,-99.99,,,0.00,weatherlink.com 1.10,2013-09-15 00:05:00,
2013-09-14 19:20:00,67.2,61.0,29.97,NE,36,0.0,-999.0,81,-99.99,,,0.00,weatherlink.com 1.10,2013-09-15 00:20:00,
2013-09-14 19:35:00,66.2,61.0,29.98,NE,36,0.0,-999.0,83,-99.99,,,0.00,weatherlink.com 1.10,2013-09-15 00:35:00,
2013-09-14 19:50:00,65.4,61.0,29.98,NE,36,0.0,-999.0,85,-99.99,,,0.00,weatherlink.com 1.10,2013-09-15 00:50:00,
2013-09-14 20:05:00,64.5,60.0,29.98,NE,36,0.0,-999.0,85,-99.99,,,0.00,weatherlink.com 1.10,2013-09-15 01:05:00,
2013-09-14 20:20:00,64.0,60.0,29.99,NE,36,0.0,-999.0,87,-99.99,,,0.00,weatherlink.com 1.10,2013-09-15 01:20:00,
2013-09-14 20:35:00,63.4,60.0,30.00,NE,36,0.0,-999.0,88,-99.99,,,0.00,weatherlink.com 1.10,2013-09-15 01:35:00,
2013-09-14 20:50:00,62.8,59.0,30.00,NE,36,0.0,-999.0,88,-99.99,,,0.00,weatherlink.com 1.10,2013-09-15 01:50:00,
2013-09-14 21:05:00,62.3,59.0,30.00,NE,36,0.0,-999.0,89,-99.99,,,0.00,weatherlink.com 1.10,2013-09-15 02:05:00,
2013-09-14 21:20:00,61.9,59.0,30.01,NE,36,0.0,-999.0,90,-99.99,,,0.00,weatherlink.com 1.10,2013-09-15 02:20:00,
2013-09-14 21:35:00,61.6,59.0,30.01,NE,36,0.0,-999.0,91,-99.99,,,0.00,weatherlink.com 1.10,2013-09-15 02:35:00,
2013-09-14 21:50:00,61.3,59.0,30.02,NE,36,0.0,-999.0,91,-99.99,,,0.00,weatherlink.com 1.10,2013-09-15 02:50:00,
2013-09-14 22:05:00,61.0,59.0,30.02,NE,36,0.0,-999.0,92,-99.99,,,0.00,weatherlink.com 1.10,2013-09-15 03:05:00,
2013-09-14 22:20:00,60.7,58.0,30.02,NE,36,0.0,-999.0,92,-99.99,,,0.00,weatherlink.com 1.10,2013-09-15 03:20:00,
2013-09-14 22:35:00,60.4,58.0,30.02,NE,36,0.0,-999.0,92,-99.99,,,0.00,weatherlink.com 1.10,2013-09-15 03:35:00,
2013-09-14 22:50:00,60.1,58.0,30.02,NE,36,0.0,-999.0,92,-99.99,,,0.00,weatherlink.com 1.10,2013-09-15 03:50:00,
2013-09-14 23:05:00,59.7,58.0,30.02,NE,36,0.0,-999.0,93,-99.99,,,0.00,weatherlink.com 1.10,2013-09-15 04:05:00,
2013-09-14 23:20:00,59.4,57.0,30.02,NE,36,0.0,-999.0,93,-99.99,,,0.00,weatherlink.com 1.10,2013-09-15 04:20:00,
2013-09-14 23:35:00,59.1,57.0,30.02,NE,36,0.0,-999.0,94,-99.99,,,0.00,weatherlink.com 1.10,2013-09-15 04:35:00,
2013-09-14 23:50:00,58.9,57.0,30.02,NE,36,0.0,-999.0,94,-99.99,,,0.00,weatherlink.com 1.10,2013-09-15 04:50:00,